Time;durP1;ratioP1;P1;durP2;ratioP2;P2;SDS_P1;SDS_P2;PMS_P1;PMS_P2;Temp;Humidity;BMP_temperature;BMP_pressure;BME280_temperature;BME280_humidity;BME280_pressure;Samples;Min_cycle;Max_cycle;Signal;HPM_P1;HPM_P2
2023/06/02 00:01:06;;;;;;;6.50;2.13;;;;;;;12.55;68.79;101989.56;5060780;28;20040;-88
2023/06/02 00:03:34;;;;;;;5.75;2.20;;;;;;;12.53;68.74;101978.88;5095604;28;20433;-88
2023/06/02 00:06:00;;;;;;;7.28;2.25;;;;;;;12.51;69.10;101980.16;5077434;28;20039;-88
2023/06/02 00:08:26;;;;;;;7.47;2.40;;;;;;;12.59;68.31;101985.41;5095578;28;20476;-87
2023/06/02 00:10:52;;;;;;;10.00;2.78;;;;;;;12.49;68.57;101976.78;5095280;28;20122;-88
2023/06/02 00:13:21;;;;;;;10.48;3.25;;;;;;;12.51;68.76;101983.69;5077262;28;20035;-87
2023/06/02 00:15:47;;;;;;;11.77;2.45;;;;;;;12.50;69.10;101987.44;5095623;28;20055;-88
2023/06/02 00:18:13;;;;;;;9.23;2.60;;;;;;;12.49;69.20;101980.34;5060917;28;20039;-87
2023/06/02 00:20:39;;;;;;;10.20;2.57;;;;;;;12.43;68.83;101990.16;5060266;28;20493;-87
2023/06/02 00:23:08;;;;;;;7.47;2.78;;;;;;;12.39;68.70;101997.03;5060520;28;20040;-88
2023/06/02 00:25:38;;;;;;;7.45;2.83;;;;;;;12.38;68.54;101991.78;5061458;28;20036;-88
2023/06/02 00:28:04;;;;;;;8.50;3.17;;;;;;;12.34;68.68;101988.63;5094862;28;20111;-88
2023/06/02 00:30:30;;;;;;;13.97;3.20;;;;;;;12.31;68.81;101986.28;5077081;28;20123;-88
2023/06/02 00:32:59;;;;;;;11.45;2.78;;;;;;;12.28;68.58;101984.84;5061159;28;20367;-87
2023/06/02 00:35:25;;;;;;;9.63;2.40;;;;;;;12.25;69.03;101978.94;5076707;28;20089;-87
2023/06/02 00:37:53;;;;;;;7.72;2.65;;;;;;;12.19;68.62;101980.56;5059782;28;20036;-88
2023/06/02 00:40:19;;;;;;;6.90;2.53;;;;;;;12.11;67.59;101980.72;5094550;28;20111;-88
2023/06/02 00:42:45;;;;;;;12.02;2.70;;;;;;;12.08;68.03;101978.41;5076912;28;20031;-88
2023/06/02 00:45:10;;;;;;;8.63;2.73;;;;;;;12.06;67.62;101984.03;5077066;28;20032;-88
2023/06/02 00:47:39;;;;;;;9.67;2.40;;;;;;;11.99;67.80;101976.84;5076518;28;20031;-88
2023/06/02 00:50:05;;;;;;;13.15;2.45;;;;;;;11.93;67.92;101976.59;5060353;28;20146;-88
2023/06/02 00:52:33;;;;;;;10.18;2.40;;;;;;;11.96;68.03;101982.69;5094602;28;20028;-87
2023/06/02 00:55:02;;;;;;;8.38;2.40;;;;;;;11.96;67.85;101982.69;5094290;28;20031;-88
2023/06/02 00:57:34;;;;;;;11.43;2.50;;;;;;;11.93;67.70;101983.94;5076515;28;20456;-88
2023/06/02 01:00:04;;;;;;;8.30;2.87;;;;;;;11.92;67.85;101984.94;5076295;28;20032;-88
2023/06/02 01:02:31;;;;;;;10.95;2.25;;;;;;;11.91;67.28;101980.53;5060446;28;20472;-87
2023/06/02 01:04:57;;;;;;;10.48;2.40;;;;;;;11.87;67.25;101990.97;5076539;28;20391;-87
2023/06/02 01:07:25;;;;;;;12.32;2.45;;;;;;;11.81;67.27;101975.44;5076256;28;20024;-87
2023/06/02 01:10:01;;;;;;;9.18;2.47;;;;;;;11.80;66.73;101981.91;5059349;28;20476;-88
2023/06/02 01:12:27;;;;;;;8.40;2.30;;;;;;;11.79;67.22;101984.81;5076107;28;20065;-87
2023/06/02 01:14:53;;;;;;;12.00;2.92;;;;;;;11.72;67.02;101972.03;5076104;28;20020;-88
2023/06/02 01:17:19;;;;;;;10.68;2.95;;;;;;;11.73;66.84;101986.44;5094284;28;20027;-87
2023/06/02 01:19:49;;;;;;;13.83;2.10;;;;;;;11.71;66.45;101983.91;5076899;28;20038;-87
2023/06/02 01:22:19;;;;;;;12.25;2.88;;;;;;;11.72;67.31;101988.31;5075898;28;20540;-87
2023/06/02 01:24:47;;;;;;;14.18;2.50;;;;;;;11.67;66.80;101976.34;5094086;28;20060;-88
2023/06/02 01:27:12;;;;;;;9.27;2.30;;;;;;;11.71;66.22;101992.06;5076391;28;20125;-87
2023/06/02 01:29:39;;;;;;;15.97;2.63;;;;;;;11.63;66.51;101984.03;5075712;28;20048;-87
2023/06/02 01:32:28;;;;;;;12.55;2.38;;;;;;;11.68;66.27;101980.75;5058821;28;20028;-87
2023/06/02 01:35:02;;;;;;;7.93;2.65;;;;;;;11.69;66.57;101983.28;5075782;28;20035;-88
2023/06/02 01:37:30;;;;;;;10.82;2.70;;;;;;;11.68;66.85;101981.59;5076046;28;20028;-88
2023/06/02 01:39:56;;;;;;;9.80;2.83;;;;;;;11.72;66.77;101982.88;5058942;28;20460;-88
2023/06/02 01:42:22;;;;;;;12.35;3.10;;;;;;;11.73;66.00;101983.72;5093907;28;20055;-87
2023/06/02 01:44:50;;;;;;;9.20;2.70;;;;;;;11.74;66.41;101988.13;5076132;28;20040;-87
2023/06/02 01:47:15;;;;;;;12.25;2.30;;;;;;;11.77;65.92;101990.47;5093454;28;20102;-87
2023/06/02 01:49:41;;;;;;;13.03;2.70;;;;;;;11.81;65.97;101993.63;5059778;28;20028;-87
2023/06/02 01:52:06;;;;;;;16.03;2.90;;;;;;;11.80;66.24;101986.50;5059443;28;20376;-88
2023/06/02 01:54:32;;;;;;;13.20;2.50;;;;;;;11.74;65.81;101966.38;5075701;28;20395;-88
2023/06/02 01:56:57;;;;;;;11.57;2.47;;;;;;;11.81;65.90;101974.59;5075904;28;20028;-88
2023/06/02 01:59:23;;;;;;;9.38;2.22;;;;;;;11.80;65.77;101978.34;5058901;28;20427;-88
2023/06/02 02:01:48;;;;;;;10.80;2.53;;;;;;;11.74;65.39;101971.81;5076481;28;20028;-87
2023/06/02 02:04:14;;;;;;;12.23;2.80;;;;;;;11.72;65.92;101966.56;5059072;28;20467;-88
2023/06/02 02:06:41;;;;;;;14.60;2.58;;;;;;;11.78;66.05;101986.72;5076363;28;20032;-87
2023/06/02 02:09:07;;;;;;;10.50;3.00;;;;;;;11.70;66.57;101965.91;5075522;28;20028;-87
2023/06/02 02:11:33;;;;;;;12.77;2.45;;;;;;;11.73;66.72;101981.84;5075669;28;20027;-87
2023/06/02 02:14:00;;;;;;;11.38;2.22;;;;;;;11.73;66.33;101972.84;5076266;28;20104;-87
2023/06/02 02:16:25;;;;;;;15.43;2.43;;;;;;;11.69;66.33;101968.81;5058974;28;20039;-87
2023/06/02 02:18:52;;;;;;;11.27;3.30;;;;;;;11.74;66.46;101974.53;5075434;28;20032;-88
2023/06/02 02:21:18;;;;;;;13.38;2.60;;;;;;;11.72;66.59;101976.59;5075681;28;20492;-87
2023/06/02 02:23:44;;;;;;;12.27;2.57;;;;;;;11.82;66.13;101981.72;5093333;28;20024;-88
2023/06/02 02:26:10;;;;;;;8.20;2.92;;;;;;;11.82;66.20;101982.53;5093458;28;20032;-87
2023/06/02 02:28:37;;;;;;;10.63;2.57;;;;;;;11.89;66.08;101982.63;5075214;28;20039;-87
2023/06/02 02:31:04;;;;;;;13.52;2.60;;;;;;;11.90;66.72;101985.13;5093063;28;20020;-87
2023/06/02 02:33:30;;;;;;;18.67;2.47;;;;;;;11.89;66.75;101977.16;5093412;28;20039;-88
2023/06/02 02:35:55;;;;;;;10.83;2.60;;;;;;;11.93;66.91;101971.16;5058659;28;20024;-87
2023/06/02 02:38:21;;;;;;;12.30;2.80;;;;;;;11.90;66.52;101970.72;5093087;28;20472;-88
2023/06/02 02:40:47;;;;;;;13.80;2.63;;;;;;;11.88;67.08;101967.31;5074936;28;20032;-88
2023/06/02 02:43:15;;;;;;;16.02;2.50;;;;;;;11.90;66.70;101974.25;5092999;28;20047;-88
2023/06/02 02:45:40;;;;;;;10.13;2.70;;;;;;;11.89;67.11;101969.00;5058725;28;20050;-88
2023/06/02 02:48:07;;;;;;;8.23;2.43;;;;;;;11.85;67.29;101968.53;5059031;28;20453;-88
2023/06/02 02:50:33;;;;;;;12.02;2.15;;;;;;;11.88;67.27;101964.59;5060341;28;20028;-88
2023/06/02 02:52:58;;;;;;;9.13;2.60;;;;;;;11.97;67.81;101978.94;5078808;28;20024;-88
2023/06/02 02:55:23;;;;;;;10.33;2.40;;;;;;;11.89;67.10;101958.97;5079129;28;20122;-87
2023/06/02 02:57:53;;;;;;;8.90;3.03;;;;;;;11.89;67.23;101960.84;5078692;28;20044;-87
2023/06/02 03:00:18;;;;;;;8.48;2.88;;;;;;;11.83;67.25;101959.75;5079528;28;20020;-87
2023/06/02 03:02:44;;;;;;;10.82;2.92;;;;;;;11.84;67.63;101975.03;5078295;28;20399;-88
2023/06/02 03:05:13;;;;;;;16.73;3.43;;;;;;;11.73;68.16;101953.81;5078564;28;20024;-87
2023/06/02 03:07:44;;;;;;;10.30;2.85;;;;;;;11.81;68.62;101969.16;5061940;28;20035;-87
2023/06/02 03:10:10;;;;;;;10.00;2.88;;;;;;;11.76;68.39;101958.84;5078679;28;20031;-88
2023/06/02 03:12:35;;;;;;;10.10;3.20;;;;;;;11.80;68.71;101976.47;5078068;28;20028;-87
2023/06/02 03:15:01;;;;;;;15.57;3.03;;;;;;;11.82;68.49;101979.00;5096259;28;20028;-88
2023/06/02 03:17:27;;;;;;;8.80;2.77;;;;;;;11.75;68.86;101968.91;5061910;28;20036;-88
2023/06/02 03:19:55;;;;;;;8.57;2.37;;;;;;;11.77;69.74;101974.16;5061975;28;20274;-87
2023/06/02 03:22:20;;;;;;;15.05;3.05;;;;;;;11.80;69.28;101973.75;5096356;28;20382;-88
2023/06/02 03:24:46;;;;;;;14.43;2.67;;;;;;;11.71;69.13;101966.78;5096028;28;20099;-94
2023/06/02 03:27:13;;;;;;;13.87;2.97;;;;;;;11.65;69.28;101972.97;5095971;28;20392;-87
2023/06/02 03:29:42;;;;;;;11.90;3.00;;;;;;;11.62;69.66;101976.94;5078407;28;20040;-88
2023/06/02 03:32:11;;;;;;;12.88;3.17;;;;;;;11.59;69.05;101970.00;5061311;28;20032;-87
2023/06/02 03:34:39;;;;;;;12.70;2.97;;;;;;;11.50;69.08;101968.47;5077979;28;20027;-88
2023/06/02 03:37:08;;;;;;;12.52;2.95;;;;;;;11.55;68.80;101981.47;5096114;28;20032;-87
2023/06/02 03:39:33;;;;;;;13.48;3.50;;;;;;;11.51;69.09;101981.00;5077959;28;20036;-87
2023/06/02 03:41:59;;;;;;;10.10;2.80;;;;;;;11.50;68.90;101981.19;5077643;28;20040;-87
2023/06/02 03:44:24;;;;;;;12.80;2.50;;;;;;;11.56;68.56;101988.59;5061406;28;20043;-87
2023/06/02 03:46:50;;;;;;;11.00;2.88;;;;;;;11.51;67.96;101994.59;5077446;28;20127;-88
2023/06/02 03:49:15;;;;;;;10.70;2.70;;;;;;;11.50;67.70;101998.38;5061849;28;20040;-88
2023/06/02 03:51:43;;;;;;;11.00;2.43;;;;;;;11.54;67.54;101998.81;5077643;28;20032;-88
2023/06/02 03:54:08;;;;;;;7.97;2.30;;;;;;;11.49;67.47;101984.97;5061193;28;20028;-88
2023/06/02 03:56:37;;;;;;;11.85;2.47;;;;;;;11.50;67.58;101995.66;5060639;28;20036;-88
2023/06/02 03:59:05;;;;;;;10.50;2.43;;;;;;;11.49;67.28;101991.25;5077806;28;20517;-88
2023/06/02 04:01:32;;;;;;;11.38;2.50;;;;;;;11.48;67.64;101992.25;5095368;28;20058;-88
2023/06/02 04:03:58;;;;;;;10.80;2.30;;;;;;;11.50;67.96;102003.78;5077036;28;20043;-88
2023/06/02 04:06:23;;;;;;;9.00;2.63;;;;;;;11.56;67.67;101999.47;5061041;28;20054;-87
2023/06/02 04:08:48;;;;;;;11.13;2.90;;;;;;;11.52;67.86;101993.56;5077375;28;20205;-88
2023/06/02 04:11:14;;;;;;;11.77;2.75;;;;;;;11.56;67.82;101997.59;5077301;28;20028;-88
2023/06/02 04:13:39;;;;;;;10.83;2.67;;;;;;;11.57;68.09;101993.84;5061101;28;20032;-87
2023/06/02 04:16:07;;;;;;;11.30;2.53;;;;;;;11.64;67.88;102004.75;5077523;28;20058;-87
2023/06/02 04:18:36;;;;;;;9.70;2.55;;;;;;;11.57;67.79;101990.25;5077154;28;20040;-87
2023/06/02 04:21:04;;;;;;;8.68;2.92;;;;;;;11.63;67.68;102010.41;5095280;28;20028;-87
2023/06/02 04:23:30;;;;;;;14.45;2.85;;;;;;;11.54;67.46;101987.94;5077393;28;20503;-87
2023/06/02 04:25:55;;;;;;;8.53;2.23;;;;;;;11.57;67.67;102007.44;5076849;28;20035;-88
2023/06/02 04:28:21;;;;;;;9.77;2.53;;;;;;;11.54;67.00;101987.94;5076948;28;20048;-88
2023/06/02 04:30:49;;;;;;;11.32;2.53;;;;;;;11.56;65.75;101997.59;5076768;28;20464;-87
2023/06/02 04:33:14;;;;;;;8.67;2.60;;;;;;;11.56;66.32;101989.44;5076733;28;20032;-87
2023/06/02 04:35:42;;;;;;;9.55;2.20;;;;;;;11.53;65.71;101987.09;5094649;28;20020;-87
2023/06/02 04:38:09;;;;;;;7.82;2.35;;;;;;;11.54;66.31;101994.19;5077549;28;20085;-88
2023/06/02 04:40:37;;;;;;;7.30;2.67;;;;;;;11.54;65.67;101991.47;5076561;28;20115;-86
2023/06/02 04:43:03;;;;;;;10.52;2.40;;;;;;;11.59;64.64;102012.66;5076672;28;20032;-85
2023/06/02 04:45:31;;;;;;;8.93;2.38;;;;;;;11.49;65.42;102004.81;5076800;28;20035;-86
2023/06/02 04:47:57;;;;;;;11.77;2.65;;;;;;;11.56;65.52;101994.03;5076651;28;20035;-87
2023/06/02 04:50:23;;;;;;;7.90;2.40;;;;;;;11.64;65.76;101990.34;5076426;28;20027;-88
2023/06/02 04:52:48;;;;;;;10.97;2.53;;;;;;;11.64;65.74;101991.16;5094962;28;20111;-88
2023/06/02 04:55:14;;;;;;;7.35;2.28;;;;;;;11.71;65.25;102000.22;5059700;28;20035;-88
2023/06/02 04:57:40;;;;;;;9.50;2.50;;;;;;;11.80;64.63;102003.66;5094839;28;20034;-87
2023/06/02 05:00:07;;;;;;;11.13;2.47;;;;;;;11.77;64.80;102007.59;5076334;28;20380;-87
2023/06/02 05:02:33;;;;;;;10.20;2.60;;;;;;;11.77;65.21;102010.31;5076670;28;20028;-87
2023/06/02 05:04:59;;;;;;;13.43;2.23;;;;;;;11.82;64.79;102017.88;5075928;28;20529;-87
2023/06/02 05:07:25;;;;;;;7.77;2.40;;;;;;;11.82;64.50;102009.72;5076968;28;20273;-88
2023/06/02 05:09:50;;;;;;;9.20;2.03;;;;;;;11.89;64.04;102007.91;5076138;28;20024;-88
2023/06/02 05:12:16;;;;;;;12.97;2.17;;;;;;;11.92;64.27;102017.56;5093939;28;20028;-88
2023/06/02 05:14:44;;;;;;;7.25;1.90;;;;;;;11.98;64.29;102013.25;5075144;28;20452;-87
2023/06/02 05:17:09;;;;;;;8.37;2.00;;;;;;;12.14;63.29;102031.19;5060559;28;20043;-87
2023/06/02 05:19:35;;;;;;;8.73;2.03;;;;;;;12.15;63.56;102014.66;5075669;28;20027;-87
2023/06/02 05:22:09;;;;;;;8.37;1.97;;;;;;;12.23;63.72;102014.50;5075658;28;20113;-88
2023/06/02 05:24:35;;;;;;;11.30;1.85;;;;;;;12.32;62.81;102026.06;5094479;28;20140;-87
2023/06/02 05:27:03;;;;;;;9.27;1.90;;;;;;;12.38;62.25;102036.16;5093719;28;20487;-88
2023/06/02 05:29:29;;;;;;;8.50;1.90;;;;;;;12.39;62.07;102037.03;5059236;28;20542;-86
2023/06/02 05:31:54;;;;;;;9.80;2.10;;;;;;;12.36;61.99;102024.66;5059481;28;20119;-86
2023/06/02 05:34:20;;;;;;;9.73;2.03;;;;;;;12.46;61.57;102036.03;5076179;28;20040;-85
2023/06/02 05:36:45;;;;;;;15.27;2.17;;;;;;;12.55;61.62;102033.13;5076255;28;20063;-87
2023/06/02 05:39:10;;;;;;;7.73;1.90;;;;;;;12.62;61.04;102025.84;5075727;28;20032;-86
2023/06/02 05:41:36;;;;;;;16.87;2.30;;;;;;;12.63;62.51;102022.94;5075832;28;20024;-87
2023/06/02 05:44:01;;;;;;;11.03;2.10;;;;;;;12.71;60.83;102029.25;5093814;28;20036;-88
2023/06/02 05:46:27;;;;;;;13.10;2.25;;;;;;;12.68;61.19;102011.47;5093579;28;20127;-88
2023/06/02 05:48:52;;;;;;;14.67;1.77;;;;;;;12.82;60.62;102024.06;5058767;28;20036;-87
2023/06/02 05:51:18;;;;;;;9.77;1.97;;;;;;;12.92;60.34;102029.16;5075365;28;20031;-87
2023/06/02 05:53:43;;;;;;;9.40;1.83;;;;;;;12.86;59.92;102020.94;5075355;28;20055;-86
2023/06/02 05:56:08;;;;;;;11.00;2.05;;;;;;;12.98;59.42;102030.25;5058713;28;20083;-88
2023/06/02 05:58:38;;;;;;;17.33;2.50;;;;;;;13.11;61.13;102034.88;5059133;28;20040;-87
2023/06/02 06:01:04;;;;;;;13.27;2.03;;;;;;;13.00;60.32;102019.97;5075391;28;20032;-88
2023/06/02 06:03:29;;;;;;;8.55;2.03;;;;;;;13.06;60.14;102032.78;5093163;28;20110;-87
2023/06/02 06:05:57;;;;;;;9.73;1.80;;;;;;;13.21;59.49;102039.97;5075505;28;20383;-90
2023/06/02 06:08:22;;;;;;;11.38;1.67;;;;;;;13.20;58.67;102027.38;5093329;28;20455;-88
2023/06/02 06:10:48;;;;;;;7.67;1.43;;;;;;;13.27;59.66;102034.56;5075162;28;20039;-88
2023/06/02 06:13:13;;;;;;;7.93;1.80;;;;;;;13.31;59.39;102024.06;5093394;28;20039;-88
2023/06/02 06:15:41;;;;;;;15.63;2.37;;;;;;;13.24;57.94;102018.63;5075744;28;20432;-89
2023/06/02 06:18:06;;;;;;;7.28;1.75;;;;;;;13.34;57.89;102018.25;5074674;28;20032;-88
2023/06/02 06:20:32;;;;;;;12.57;2.23;;;;;;;13.40;58.04;102019.31;5074517;28;20043;-89
2023/06/02 06:22:57;;;;;;;9.05;2.03;;;;;;;13.45;57.73;102031.28;5074516;28;20044;-88
2023/06/02 06:25:25;;;;;;;9.47;1.87;;;;;;;13.52;56.95;102031.28;5093963;28;20027;-89
2023/06/02 06:27:51;;;;;;;12.55;2.28;;;;;;;13.54;56.38;102017.44;5078430;28;20040;-88
2023/06/02 06:30:16;;;;;;;7.53;1.70;;;;;;;13.68;55.97;102039.09;5079221;28;20032;-89
2023/06/02 06:32:41;;;;;;;13.77;2.13;;;;;;;13.76;55.50;102032.59;5078635;28;20031;-88
2023/06/02 06:35:09;;;;;;;9.17;1.87;;;;;;;13.78;55.06;102026.94;5078745;28;20027;-90
2023/06/02 06:37:35;;;;;;;9.82;2.05;;;;;;;13.87;55.36;102025.69;5062244;28;20455;-90
2023/06/02 06:40:00;;;;;;;10.60;2.03;;;;;;;14.00;55.05;102027.59;5079497;28;20059;-90
2023/06/02 06:42:29;;;;;;;12.30;2.10;;;;;;;14.01;55.07;102023.78;5097210;28;20460;-89
2023/06/02 06:44:55;;;;;;;9.23;1.80;;;;;;;14.12;54.14;102020.44;5079321;28;20024;-90
2023/06/02 06:47:20;;;;;;;10.83;2.20;;;;;;;14.20;53.74;102027.56;5078670;28;20093;-94
2023/06/02 06:49:46;;;;;;;9.15;1.95;;;;;;;14.28;53.93;102027.38;5097036;28;20147;-91
2023/06/02 06:52:11;;;;;;;6.60;1.77;;;;;;;14.33;53.90;102033.00;5078330;28;20541;-89
2023/06/02 06:54:37;;;;;;;10.33;1.70;;;;;;;14.45;53.27;102041.41;5078343;28;20115;-89
2023/06/02 06:57:05;;;;;;;14.20;2.22;;;;;;;14.42;53.51;102033.63;5077893;28;20395;-90
2023/06/02 06:59:30;;;;;;;15.17;2.53;;;;;;;14.48;53.64;102030.06;5062458;28;20039;-90
2023/06/02 07:01:56;;;;;;;8.60;1.88;;;;;;;14.50;53.05;102027.97;5096725;28;20020;-89
2023/06/02 07:04:21;;;;;;;11.03;2.13;;;;;;;14.62;53.34;102036.38;5078779;28;20543;-89
2023/06/02 07:06:47;;;;;;;10.70;2.10;;;;;;;14.79;52.26;102041.38;5062286;28;20032;-90
2023/06/02 07:09:13;;;;;;;10.68;1.90;;;;;;;15.01;51.42;102048.22;5078249;28;20047;-90
2023/06/02 07:11:38;;;;;;;11.63;2.10;;;;;;;15.08;51.00;102034.53;5078236;28;20032;-90
2023/06/02 07:14:04;;;;;;;8.30;2.07;;;;;;;15.09;51.35;102031.59;5078938;28;20360;-89
2023/06/02 07:16:30;;;;;;;7.13;2.00;;;;;;;15.24;51.08;102042.25;5078283;28;20031;-89
2023/06/02 07:18:55;;;;;;;9.27;1.85;;;;;;;15.46;50.28;102043.81;5045034;28;20024;-89
2023/06/02 07:21:21;;;;;;;12.53;2.43;;;;;;;15.51;49.68;102033.91;5097004;28;20050;-89
2023/06/02 07:23:46;;;;;;;9.00;2.30;;;;;;;15.66;49.69;102035.50;5096807;28;20024;-89
2023/06/02 07:26:12;;;;;;;9.57;2.00;;;;;;;15.71;48.84;102033.78;5096667;28;20475;-89
2023/06/02 07:28:40;;;;;;;9.85;1.70;;;;;;;15.81;48.42;102040.69;5061964;28;20468;-88
2023/06/02 07:31:05;;;;;;;11.53;2.17;;;;;;;15.95;48.39;102056.78;5096066;28;20031;-88
2023/06/02 07:33:31;;;;;;;9.85;2.10;;;;;;;16.14;48.09;102056.88;5096495;28;20367;-88
2023/06/02 07:35:56;;;;;;;10.33;2.20;;;;;;;16.12;47.29;102058.97;5095974;28;20024;-89
2023/06/02 07:38:24;;;;;;;9.07;2.10;;;;;;;16.11;47.71;102049.94;5060076;28;20390;-90
2023/06/02 07:40:50;;;;;;;15.43;2.15;;;;;;;16.26;47.27;102056.97;5061829;28;20483;-89
2023/06/02 07:43:15;;;;;;;9.77;2.27;;;;;;;16.45;46.94;102053.22;5077917;28;20028;-90
2023/06/02 07:45:44;;;;;;;8.07;2.08;;;;;;;16.54;47.25;102040.06;5077590;28;20478;-90
2023/06/02 07:48:09;;;;;;;10.25;2.08;;;;;;;16.70;46.44;102046.84;5077812;28;20476;-89
2023/06/02 07:50:35;;;;;;;7.37;1.93;;;;;;;16.69;46.14;102038.88;5060627;28;20055;-90
2023/06/02 07:53:02;;;;;;;9.73;2.27;;;;;;;16.74;45.53;102031.66;5095985;28;20080;-90
2023/06/02 07:55:28;;;;;;;11.73;2.40;;;;;;;16.94;45.64;102044.31;5061254;28;20035;-90
2023/06/02 07:57:53;;;;;;;10.10;2.17;;;;;;;17.02;44.97;102049.47;5095450;28;20024;-89
2023/06/02 08:00:21;;;;;;;10.83;1.97;;;;;;;17.17;44.75;102038.94;5077494;28;20475;-87
2023/06/02 08:02:47;;;;;;;13.02;2.40;;;;;;;17.27;44.68;102041.16;5077400;28;20095;-87
2023/06/02 08:05:17;;;;;;;12.80;2.40;;;;;;;17.31;44.22;102031.38;5077365;28;20031;-87
2023/06/02 08:07:43;;;;;;;8.52;1.73;;;;;;;17.37;43.47;102029.63;5096082;28;20093;-87
2023/06/02 08:10:10;;;;;;;11.80;2.20;;;;;;;17.43;44.38;102027.84;5077111;28;20036;-87
2023/06/02 08:12:36;;;;;;;8.77;2.20;;;;;;;17.53;43.49;102036.34;5095082;28;20030;-87
2023/06/02 08:15:05;;;;;;;7.07;2.10;;;;;;;17.55;43.74;102031.47;5077475;28;20533;-88
2023/06/02 08:17:30;;;;;;;10.50;1.83;;;;;;;17.57;43.21;102037.56;5094933;28;20020;-88
2023/06/02 08:19:59;;;;;;;8.50;1.83;;;;;;;17.65;43.22;102034.47;5060293;28;20088;-89
2023/06/02 08:22:30;;;;;;;13.75;2.17;;;;;;;17.84;42.92;102037.16;5073508;28;20051;-88
2023/06/02 08:24:56;;;;;;;8.10;2.33;;;;;;;17.86;42.47;102030.38;5075061;28;20036;-88
2023/06/02 08:27:23;;;;;;;8.77;1.60;;;;;;;18.03;42.15;102036.03;5074841;28;20017;-88
2023/06/02 08:29:51;;;;;;;10.68;2.58;;;;;;;18.26;41.69;102039.88;5073291;28;20039;-88
2023/06/02 08:32:24;;;;;;;8.50;2.22;;;;;;;18.33;41.70;102035.09;5073258;28;20032;-88
2023/06/02 08:34:50;;;;;;;8.15;1.63;;;;;;;18.57;41.35;102040.59;5074067;28;20032;-88
2023/06/02 08:37:20;;;;;;;7.93;1.93;;;;;;;18.81;40.86;102041.41;5073434;28;20032;-88
2023/06/02 08:39:47;;;;;;;14.60;2.25;;;;;;;18.84;40.63;102045.56;5073615;28;20032;-88
2023/06/02 08:42:15;;;;;;;5.57;1.85;;;;;;;18.86;40.54;102037.97;5073811;28;20024;-88
2023/06/02 08:44:41;;;;;;;11.38;2.50;;;;;;;18.97;40.52;102044.50;5074145;28;20119;-89
2023/06/02 08:47:11;;;;;;;9.48;2.20;;;;;;;18.87;40.52;102037.72;5074143;28;20392;-88
2023/06/02 08:49:43;;;;;;;16.50;2.53;;;;;;;18.63;40.55;102030.53;5074303;28;20491;-89
2023/06/02 08:52:15;;;;;;;11.40;2.50;;;;;;;18.56;40.89;102027.94;5073342;28;20031;-90
2023/06/02 08:54:44;;;;;;;8.02;2.10;;;;;;;18.70;41.12;102040.31;5074115;28;20028;-90
2023/06/02 08:57:16;;;;;;;15.50;2.33;;;;;;;18.96;39.73;102034.59;5073048;28;20079;-90
2023/06/02 08:59:43;;;;;;;12.18;2.47;;;;;;;19.05;39.23;102025.72;5073267;28;20032;-90
2023/06/02 09:02:13;;;;;;;10.20;2.53;;;;;;;19.39;39.76;102028.56;5072587;28;20035;-88
2023/06/02 09:04:39;;;;;;;9.68;2.22;;;;;;;19.68;38.92;102024.94;5074129;28;20033;-88
2023/06/02 09:07:13;;;;;;;7.63;2.22;;;;;;;19.89;39.08;102031.69;5073126;28;20036;-89
2023/06/02 09:09:44;;;;;;;7.87;2.03;;;;;;;19.74;38.88;102022.06;5072791;28;20369;-89
2023/06/02 09:12:11;;;;;;;12.23;2.30;;;;;;;19.60;38.88;102024.28;5073021;28;20365;-90
2023/06/02 09:14:37;;;;;;;11.88;2.50;;;;;;;19.36;39.01;102019.97;5072752;28;20099;-89
2023/06/02 09:17:03;;;;;;;12.95;2.70;;;;;;;19.26;39.93;102021.44;5072651;28;20089;-89
2023/06/02 09:19:49;;;;;;;9.73;2.35;;;;;;;19.14;40.74;102042.66;5072420;28;20025;-89
2023/06/02 09:22:15;;;;;;;10.70;2.67;;;;;;;18.98;39.67;102033.25;5072249;28;20492;-89
2023/06/02 09:24:40;;;;;;;8.98;2.20;;;;;;;19.13;39.51;102024.47;5072542;28;20027;-89
2023/06/02 09:27:11;;;;;;;9.43;2.97;;;;;;;18.89;39.65;102035.53;5055989;28;20465;-89
2023/06/02 09:29:38;;;;;;;9.45;2.92;;;;;;;18.84;40.70;102029.91;5074119;28;20032;-90
2023/06/02 09:32:04;;;;;;;11.80;3.42;;;;;;;18.98;40.45;102027.75;5072911;28;20051;-90
2023/06/02 09:34:38;;;;;;;9.80;2.60;;;;;;;18.96;40.15;102009.84;5072346;28;20503;-89
2023/06/02 09:37:09;;;;;;;8.98;2.40;;;;;;;19.18;39.66;102021.84;5074377;28;20464;-90
2023/06/02 09:39:43;;;;;;;8.18;2.03;;;;;;;19.33;39.33;102026.81;5073864;28;20024;-90
2023/06/02 09:42:13;;;;;;;10.25;2.50;;;;;;;19.38;39.57;102015.88;5074175;28;20111;-89
2023/06/02 09:44:40;;;;;;;14.60;3.30;;;;;;;19.48;39.38;102009.75;5072619;28;20048;-90
2023/06/02 09:47:22;;;;;;;13.88;2.72;;;;;;;20.03;39.40;102019.25;5073039;28;20575;-90
2023/06/02 09:49:48;;;;;;;10.15;2.28;;;;;;;20.54;38.31;102012.84;5072631;28;20492;-90
2023/06/02 09:52:19;;;;;;;11.52;2.40;;;;;;;20.74;36.82;102004.03;5073069;28;20056;-89
2023/06/02 09:54:47;;;;;;;13.30;2.97;;;;;;;20.67;37.78;102001.50;5072580;28;20472;-89
2023/06/02 09:57:15;;;;;;;8.95;2.53;;;;;;;20.68;37.07;102004.00;5072336;28;20029;-89
2023/06/02 09:59:43;;;;;;;11.88;2.47;;;;;;;20.73;37.10;101997.69;5073691;28;20111;-90
2023/06/02 10:02:09;;;;;;;11.82;2.72;;;;;;;21.01;37.20;101995.84;5076896;28;20039;-90
2023/06/02 10:04:38;;;;;;;12.80;2.72;;;;;;;21.28;36.53;101993.09;5076412;28;20021;-90
2023/06/02 10:07:18;;;;;;;11.13;2.50;;;;;;;21.37;36.77;102004.50;5076228;28;20028;-90
2023/06/02 10:09:52;;;;;;;8.30;2.65;;;;;;;21.51;36.88;101991.97;5076673;28;20036;-90
2023/06/02 10:12:57;;;;;;;10.43;2.63;;;;;;;21.81;36.44;101993.34;5076468;28;20055;-90
2023/06/02 10:15:28;;;;;;;10.40;2.90;;;;;;;21.89;35.57;101998.41;5045062;28;20033;-90
2023/06/02 10:18:14;;;;;;;10.43;2.80;;;;;;;21.95;35.55;101990.94;5076125;28;20532;-90
2023/06/02 10:21:04;;;;;;;12.83;2.60;;;;;;;22.13;36.20;101997.16;5077668;28;20040;-90
2023/06/02 10:24:07;;;;;;;12.98;2.50;;;;;;;22.36;35.48;102010.63;5096482;28;20080;-90
2023/06/02 10:26:55;;;;;;;9.93;2.40;;;;;;;22.30;35.56;102000.59;5097132;28;20040;-89
2023/06/02 10:29:24;;;;;;;7.88;2.42;;;;;;;22.21;35.14;101993.91;5079439;28;20114;-90
2023/06/02 10:31:50;;;;;;;14.80;2.60;;;;;;;22.19;35.73;101994.19;5062778;28;20043;-89
2023/06/02 10:34:34;;;;;;;11.43;2.77;;;;;;;22.75;35.23;102003.91;5078729;28;20459;-88
2023/06/02 10:37:00;;;;;;;10.98;2.90;;;;;;;22.97;34.06;102009.25;5079025;28;20024;-88
2023/06/02 10:39:35;;;;;;;10.33;2.90;;;;;;;23.05;34.42;102003.19;5097271;28;20020;-89
2023/06/02 10:42:13;;;;;;;9.70;2.65;;;;;;;23.30;34.51;102001.66;5096937;28;20028;-90
2023/06/02 10:44:39;;;;;;;9.27;2.88;;;;;;;23.26;33.57;101989.44;5097392;28;20047;-89
2023/06/02 10:47:17;;;;;;;11.40;2.50;;;;;;;23.55;34.30;102006.38;5078967;28;20468;-89
2023/06/02 10:49:59;;;;;;;9.02;2.72;;;;;;;23.68;34.22;101993.94;5079010;28;20043;-89
2023/06/02 10:52:25;;;;;;;12.95;3.15;;;;;;;23.50;33.32;101994.47;5046860;28;20032;-88
2023/06/02 10:55:10;;;;;;;9.43;3.05;;;;;;;24.02;33.97;101995.31;5079322;28;20452;-90
2023/06/02 10:57:48;;;;;;;10.68;2.80;;;;;;;24.66;33.13;101997.44;5078564;28;20081;-89
2023/06/02 11:00:32;;;;;;;10.30;2.90;;;;;;;25.06;32.29;101997.53;5078754;28;20024;-89
2023/06/02 11:03:01;;;;;;;10.30;2.78;;;;;;;25.05;31.22;101993.09;5078857;28;20031;-87
2023/06/02 11:05:28;;;;;;;10.10;3.03;;;;;;;25.07;30.96;102001.97;5078551;28;20031;-88
2023/06/02 11:08:15;;;;;;;8.98;3.20;;;;;;;25.53;31.71;101993.38;5061985;28;20035;-87
2023/06/02 11:11:00;;;;;;;10.55;3.17;;;;;;;25.73;30.61;101986.81;5077993;28;20028;-88
2023/06/02 11:13:26;;;;;;;10.53;3.10;;;;;;;26.15;30.40;101967.00;5078477;28;20108;-88
2023/06/02 11:15:58;;;;;;;10.55;3.28;;;;;;;26.85;29.20;101983.16;5078191;28;20039;-87
2023/06/02 11:18:31;;;;;;;10.68;2.95;;;;;;;26.64;29.83;101990.91;5079094;28;20024;-87
2023/06/02 11:21:18;;;;;;;7.25;2.83;;;;;;;27.28;29.89;101991.47;5078810;28;20136;-86
2023/06/02 11:23:43;;;;;;;12.20;3.17;;;;;;;27.98;27.40;101978.66;5078349;28;20047;-87